createdAt,value
2022-08-29T00:02:07.932Z,15.48
2022-08-29T00:04:37.884Z,15.66
2022-08-29T00:07:07.443Z,15.63
2022-08-29T00:09:36.005Z,15.43
2022-08-29T00:12:04.841Z,15.33
2022-08-29T00:14:33.501Z,15.35
2022-08-29T00:17:02.178Z,15.20
2022-08-29T00:19:30.600Z,15.19
2022-08-29T00:22:00.128Z,15.09
2022-08-29T00:24:28.503Z,15.08
2022-08-29T00:26:56.765Z,14.93
2022-08-29T00:29:25.076Z,14.91
2022-08-29T00:31:53.480Z,14.81
2022-08-29T00:34:23.061Z,14.89
2022-08-29T00:36:51.538Z,14.17
2022-08-29T00:39:23.172Z,14.71
2022-08-29T00:41:52.356Z,14.08
2022-08-29T00:44:20.852Z,14.83
2022-08-29T00:46:54.499Z,14.88
2022-08-29T00:49:33.955Z,14.70
2022-08-29T00:52:08.690Z,14.76
2022-08-29T00:54:40.823Z,14.71
2022-08-29T00:57:10.157Z,14.76
2022-08-29T00:59:41.042Z,14.69
2022-08-29T01:02:11.193Z,14.73
2022-08-29T01:04:40.556Z,14.61
2022-08-29T01:07:10.118Z,14.84
2022-08-29T01:09:43.055Z,14.43
2022-08-29T01:12:16.351Z,14.71
2022-08-29T01:14:49.091Z,14.62
2022-08-29T01:17:24.826Z,14.77
2022-08-29T01:19:58.996Z,14.42
2022-08-29T01:22:48.521Z,14.62
2022-08-29T01:25:22.379Z,14.48
2022-08-29T01:27:58.448Z,14.44
2022-08-29T01:30:27.012Z,14.08
2022-08-29T01:32:57.539Z,14.31
2022-08-29T01:35:26.536Z,14.28
2022-08-29T01:37:55.108Z,14.33
2022-08-29T01:40:30.802Z,14.20
2022-08-29T01:42:59.064Z,14.21
2022-08-29T01:45:27.355Z,14.01
2022-08-29T01:47:56.271Z,14.27
2022-08-29T01:50:24.661Z,14.19
2022-08-29T01:52:52.851Z,14.11
2022-08-29T01:55:21.325Z,14.05
2022-08-29T01:57:50.988Z,13.99
2022-08-29T02:00:20.004Z,14.09
2022-08-29T02:02:53.576Z,13.91
2022-08-29T02:05:23.025Z,13.85
2022-08-29T02:07:51.744Z,13.79
2022-08-29T02:10:20.171Z,13.79
2022-08-29T02:12:49.815Z,13.87
2022-08-29T02:15:19.057Z,13.85
2022-08-29T02:17:48.552Z,13.78
2022-08-29T02:20:17.572Z,13.75
2022-08-29T02:22:45.826Z,13.63
2022-08-29T02:25:31.521Z,13.77
2022-08-29T02:28:01.101Z,13.66
2022-08-29T02:30:29.344Z,13.71
2022-08-29T02:32:57.813Z,13.80
2022-08-29T02:35:26.252Z,13.70
2022-08-29T02:37:56.352Z,13.67
2022-08-29T02:40:31.672Z,13.66
2022-08-29T02:43:02.068Z,13.63
2022-08-29T02:45:30.858Z,13.63
2022-08-29T02:47:59.487Z,13.60
2022-08-29T02:50:28.027Z,13.59
2022-08-29T02:52:56.520Z,13.48
2022-08-29T02:55:26.680Z,13.47
2022-08-29T02:57:55.526Z,13.41
2022-08-29T03:00:28.138Z,13.40
2022-08-29T03:02:58.121Z,13.33
2022-08-29T03:05:32.426Z,13.29
2022-08-29T03:08:00.729Z,13.24
2022-08-29T03:10:29.917Z,13.25
2022-08-29T03:12:58.190Z,13.20
2022-08-29T03:15:28.212Z,13.08
2022-08-29T03:17:56.941Z,13.11
2022-08-29T03:20:26.656Z,12.64
2022-08-29T03:22:55.923Z,13.07
2022-08-29T03:25:25.979Z,13.17
2022-08-29T03:27:54.657Z,13.07
2022-08-29T03:30:23.994Z,13.18
2022-08-29T03:32:54.591Z,13.17
2022-08-29T03:35:23.829Z,12.80
2022-08-29T03:37:54.725Z,13.13
2022-08-29T03:40:24.956Z,13.23
2022-08-29T03:42:54.300Z,13.19
2022-08-29T03:45:24.088Z,13.32
2022-08-29T03:47:54.070Z,13.40
2022-08-29T03:50:24.482Z,13.35
2022-08-29T03:52:52.953Z,13.34
2022-08-29T03:55:21.449Z,13.12
2022-08-29T03:57:49.739Z,13.15
2022-08-29T04:00:20.200Z,13.02
2022-08-29T04:02:53.807Z,12.85
2022-08-29T04:05:23.718Z,12.81
2022-08-29T04:07:57.167Z,12.92
2022-08-29T04:10:29.258Z,12.74
2022-08-29T04:12:58.569Z,12.60
2022-08-29T04:15:29.426Z,12.63
2022-08-29T04:18:00.703Z,12.62
2022-08-29T04:20:34.412Z,12.67
2022-08-29T04:23:03.617Z,12.75
2022-08-29T04:25:37.212Z,12.72
2022-08-29T04:28:08.642Z,12.63
2022-08-29T04:30:38.363Z,12.72
2022-08-29T04:33:07.340Z,12.76
2022-08-29T04:35:37.354Z,12.64
2022-08-29T04:38:05.653Z,12.73
2022-08-29T04:40:34.324Z,12.69
2022-08-29T04:43:02.688Z,12.76
2022-08-29T04:45:31.040Z,12.81
2022-08-29T04:48:03.394Z,12.82
2022-08-29T04:50:32.291Z,12.83
2022-08-29T04:53:03.184Z,12.78
2022-08-29T04:55:31.450Z,12.46
2022-08-29T04:58:00.101Z,12.69
2022-08-29T05:00:30.721Z,12.71
2022-08-29T05:03:00.149Z,12.77
2022-08-29T05:05:28.962Z,12.86
2022-08-29T05:07:57.243Z,12.81
2022-08-29T05:10:27.019Z,12.80
2022-08-29T05:12:55.240Z,12.76
2022-08-29T05:15:23.553Z,12.65
2022-08-29T05:17:54.178Z,12.77
2022-08-29T05:20:22.935Z,12.81
2022-08-29T05:22:51.193Z,12.89
2022-08-29T05:25:19.724Z,12.88
2022-08-29T05:27:49.375Z,12.95
2022-08-29T05:30:25.042Z,13.04
2022-08-29T05:33:02.699Z,13.12
2022-08-29T05:35:31.006Z,13.10
2022-08-29T05:37:59.329Z,13.18
2022-08-29T05:40:27.743Z,13.40
2022-08-29T05:42:57.385Z,13.44
2022-08-29T05:45:26.160Z,13.54
2022-08-29T05:47:55.969Z,13.52
2022-08-29T05:50:24.958Z,13.70
2022-08-29T05:52:53.203Z,13.80
2022-08-29T05:55:21.839Z,13.95
2022-08-29T05:57:53.508Z,14.06
2022-08-29T06:00:23.416Z,14.13
2022-08-29T06:02:55.821Z,14.33
2022-08-29T06:05:24.539Z,14.39
2022-08-29T06:07:52.761Z,14.48
2022-08-29T06:10:21.354Z,14.48
2022-08-29T06:12:49.703Z,14.53
2022-08-29T06:15:18.556Z,14.48
2022-08-29T06:17:48.145Z,14.53
2022-08-29T06:20:16.567Z,14.61
2022-08-29T06:22:44.855Z,14.76
2022-08-29T06:25:35.590Z,14.60
2022-08-29T06:28:01.796Z,14.61
2022-08-29T06:30:34.688Z,15.10
2022-08-29T06:33:06.283Z,15.42
2022-08-29T06:35:34.595Z,15.29
2022-08-29T06:38:03.267Z,15.59
2022-08-29T06:40:31.622Z,15.48
2022-08-29T06:43:00.122Z,15.73
2022-08-29T06:45:28.548Z,15.78
2022-08-29T06:47:56.825Z,15.85
2022-08-29T06:50:26.402Z,15.72
2022-08-29T06:52:55.673Z,15.98
2022-08-29T06:55:24.424Z,16.03
2022-08-29T06:57:52.683Z,16.10
2022-08-29T07:00:22.477Z,16.36
2022-08-29T07:02:52.790Z,16.46
2022-08-29T07:05:22.523Z,16.86
2022-08-29T07:07:52.949Z,17.10
2022-08-29T07:10:22.828Z,17.20
2022-08-29T07:12:52.620Z,17.37
2022-08-29T07:15:22.219Z,17.41
2022-08-29T07:17:51.145Z,17.59
2022-08-29T07:20:19.826Z,17.79
2022-08-29T07:22:51.371Z,17.95
2022-08-29T07:25:23.233Z,18.11
2022-08-29T07:27:53.471Z,18.24
2022-08-29T07:30:22.838Z,18.44
2022-08-29T07:32:51.532Z,18.61
2022-08-29T07:35:30.043Z,18.58
2022-08-29T07:38:01.090Z,18.63
2022-08-29T07:40:31.315Z,18.15
2022-08-29T07:42:59.641Z,18.63
2022-08-29T07:45:27.960Z,18.61
2022-08-29T07:47:56.405Z,18.57
2022-08-29T07:50:24.644Z,18.78
2022-08-29T07:52:52.895Z,18.91
2022-08-29T07:55:22.946Z,19.26
2022-08-29T07:57:53.945Z,19.51
2022-08-29T08:00:22.380Z,19.64
2022-08-29T08:02:51.444Z,19.79
2022-08-29T08:05:19.961Z,19.94
2022-08-29T08:07:55.658Z,20.09
2022-08-29T08:10:24.764Z,20.25
2022-08-29T08:12:54.400Z,20.18
2022-08-29T08:15:23.052Z,20.62
2022-08-29T08:17:51.279Z,20.67
2022-08-29T08:20:19.699Z,20.75
2022-08-29T08:22:47.973Z,21.01
2022-08-29T08:25:16.258Z,21.59
2022-08-29T08:27:44.481Z,21.02
2022-08-29T08:30:15.502Z,21.20
2022-08-29T08:32:46.564Z,21.29
2022-08-29T08:35:19.642Z,21.57
2022-08-29T08:37:49.467Z,21.60
2022-08-29T08:40:28.119Z,21.82
2022-08-29T08:43:00.431Z,22.03
2022-08-29T08:45:35.267Z,21.79
2022-08-29T08:48:10.191Z,22.11
2022-08-29T08:50:53.822Z,22.29
2022-08-29T08:53:33.097Z,21.88
2022-08-29T08:56:04.821Z,22.25
2022-08-29T08:58:37.839Z,22.12
2022-08-29T09:01:23.093Z,22.24
2022-08-29T09:04:12.979Z,22.24
2022-08-29T09:06:56.275Z,22.61
2022-08-29T09:09:36.612Z,23.01
2022-08-29T09:12:19.800Z,22.98
2022-08-29T09:15:01.560Z,22.95
2022-08-29T09:17:37.183Z,22.91
2022-08-29T09:20:09.760Z,22.93
2022-08-29T09:22:40.765Z,23.18
2022-08-29T09:25:13.422Z,23.10
2022-08-29T09:27:41.748Z,23.01
2022-08-29T09:30:15.237Z,23.21
2022-08-29T09:33:00.809Z,23.31
2022-08-29T09:35:37.078Z,22.92
2022-08-29T09:38:08.359Z,23.46
2022-08-29T09:40:52.592Z,23.63
2022-08-29T09:43:31.745Z,22.93
2022-08-29T09:46:25.069Z,23.36
2022-08-29T09:49:13.819Z,22.89
2022-08-29T09:51:45.665Z,23.72
2022-08-29T09:54:31.287Z,23.67
2022-08-29T09:57:05.607Z,23.37
2022-08-29T09:59:36.337Z,23.94
2022-08-29T10:02:31.828Z,24.29
2022-08-29T10:05:05.961Z,24.49
2022-08-29T10:07:50.693Z,24.57
2022-08-29T10:10:21.462Z,24.49
2022-08-29T10:13:00.267Z,24.82
2022-08-29T10:15:49.995Z,25.11
2022-08-29T10:18:28.159Z,25.37
2022-08-29T10:21:15.933Z,25.44
2022-08-29T10:23:59.826Z,25.37
2022-08-29T10:26:40.147Z,24.75
2022-08-29T10:29:20.445Z,24.33
2022-08-29T10:31:58.830Z,24.13
2022-08-29T10:34:43.265Z,23.53
2022-08-29T10:37:23.801Z,23.64
2022-08-29T10:40:01.327Z,23.62
2022-08-29T10:42:34.892Z,23.48
2022-08-29T10:45:15.563Z,24.38
2022-08-29T10:47:53.832Z,24.44
2022-08-29T10:50:44.153Z,24.43
2022-08-29T10:53:21.612Z,24.43
2022-08-29T10:55:56.021Z,24.37
2022-08-29T10:58:40.757Z,24.72
2022-08-29T11:01:15.126Z,24.45
2022-08-29T11:03:50.214Z,24.77
2022-08-29T11:06:24.120Z,24.96
2022-08-29T11:09:03.628Z,25.07
2022-08-29T11:11:34.594Z,25.35
2022-08-29T11:14:09.494Z,25.39
2022-08-29T11:16:43.302Z,25.50
2022-08-29T11:19:22.421Z,25.62
2022-08-29T11:21:58.401Z,24.96
2022-08-29T11:24:34.533Z,24.89
2022-08-29T11:27:11.309Z,25.23
2022-08-29T11:29:53.447Z,25.60
2022-08-29T11:32:36.280Z,25.99
2022-08-29T11:35:20.588Z,26.01
2022-08-29T11:38:14.925Z,26.18
2022-08-29T11:43:53.850Z,26.41
2022-08-29T11:46:41.320Z,26.34
2022-08-29T11:49:39.197Z,26.52
2022-08-29T11:52:25.651Z,26.85
2022-08-29T11:55:31.172Z,27.00
2022-08-29T11:58:25.740Z,26.93
2022-08-29T12:00:56.169Z,26.65
2022-08-29T12:03:48.254Z,26.30
2022-08-29T12:06:35.043Z,26.63
2022-08-29T12:09:20.479Z,26.41
2022-08-29T12:12:41.655Z,26.26
2022-08-29T12:15:52.879Z,26.77
2022-08-29T12:18:45.064Z,27.31
2022-08-29T12:21:45.583Z,27.59
2022-08-29T12:24:43.541Z,27.26
2022-08-29T12:28:01.401Z,27.00
2022-08-29T12:30:34.284Z,26.98
2022-08-29T12:33:17.751Z,26.74
2022-08-29T12:36:14.579Z,27.19
2022-08-29T12:38:59.861Z,26.78
2022-08-29T12:41:46.789Z,27.01
2022-08-29T12:44:21.705Z,26.82
2022-08-29T12:46:55.434Z,26.59
2022-08-29T12:49:29.679Z,27.05
2022-08-29T12:52:01.897Z,27.59
2022-08-29T12:54:34.222Z,27.74
2022-08-29T12:57:04.885Z,27.23
2022-08-29T12:59:35.101Z,27.53
2022-08-29T13:02:03.752Z,27.17
2022-08-29T13:04:33.961Z,28.23
2022-08-29T13:07:05.366Z,28.76
2022-08-29T13:09:39.363Z,28.04
2022-08-29T13:12:12.027Z,28.37
2022-08-29T13:15:00.681Z,28.35
2022-08-29T13:17:34.966Z,27.61
2022-08-29T13:20:47.535Z,27.58
2022-08-29T13:23:27.193Z,27.72
2022-08-29T13:26:00.373Z,28.46
2022-08-29T13:28:36.711Z,29.05
2022-08-29T13:31:09.343Z,29.09
2022-08-29T13:33:39.252Z,29.74
2022-08-29T13:36:39.918Z,30.02
2022-08-29T13:39:44.614Z,30.19
2022-08-29T13:42:22.573Z,30.02
2022-08-29T13:45:23.878Z,29.89
2022-08-29T13:48:13.699Z,30.10
2022-08-29T13:50:42.593Z,29.91
2022-08-29T13:53:12.307Z,29.55
2022-08-29T13:55:43.368Z,30.08
2022-08-29T13:58:14.928Z,29.54
2022-08-29T14:00:44.433Z,28.97
2022-08-29T14:03:16.966Z,29.55
2022-08-29T14:05:45.690Z,29.47
2022-08-29T14:08:15.555Z,30.05
2022-08-29T14:10:44.927Z,30.48
2022-08-29T14:13:13.356Z,30.77
2022-08-29T14:15:41.765Z,30.72
2022-08-29T14:18:10.330Z,30.94
2022-08-29T14:20:39.111Z,31.25
2022-08-29T14:23:07.668Z,31.45
2022-08-29T14:25:37.322Z,31.55
2022-08-29T14:28:06.345Z,31.58
2022-08-29T14:30:34.639Z,31.73
2022-08-29T14:33:02.941Z,32.03
2022-08-29T14:35:32.178Z,32.04
2022-08-29T14:38:02.721Z,31.55
2022-08-29T14:40:32.584Z,31.79
2022-08-29T14:43:03.352Z,31.94
2022-08-29T14:45:33.230Z,31.90
2022-08-29T14:48:02.525Z,31.27
2022-08-29T14:50:31.315Z,30.92
2022-08-29T14:53:00.067Z,30.16
2022-08-29T14:55:28.802Z,30.05
2022-08-29T14:57:57.125Z,29.36
2022-08-29T15:00:29.976Z,29.30
2022-08-29T15:02:58.483Z,29.55
2022-08-29T15:05:27.105Z,28.98
2022-08-29T15:07:56.088Z,28.46
2022-08-29T15:10:25.896Z,28.25
2022-08-29T15:12:54.670Z,27.59
2022-08-29T15:15:29.152Z,28.33
2022-08-29T15:18:01.975Z,28.69
2022-08-29T15:20:36.222Z,28.85
2022-08-29T15:23:05.672Z,29.07
2022-08-29T15:25:34.424Z,29.28
2022-08-29T15:28:05.587Z,29.11
2022-08-29T15:30:35.312Z,28.94
2022-08-29T15:33:05.265Z,28.64
2022-08-29T15:35:33.890Z,28.31
2022-08-29T15:38:02.475Z,28.61
2022-08-29T15:40:30.892Z,28.56
2022-08-29T15:42:59.188Z,28.84
2022-08-29T15:45:27.479Z,28.91
2022-08-29T15:47:55.873Z,29.26
2022-08-29T15:50:27.871Z,28.98
2022-08-29T15:52:57.097Z,28.87
2022-08-29T15:55:25.362Z,28.75
2022-08-29T15:57:53.807Z,29.10
2022-08-29T16:00:29.775Z,28.99
2022-08-29T16:03:03.151Z,28.92
2022-08-29T16:05:34.295Z,28.84
2022-08-29T16:08:03.494Z,28.69
2022-08-29T16:10:32.405Z,28.66
2022-08-29T16:13:00.760Z,28.08
2022-08-29T16:15:31.352Z,28.20
2022-08-29T16:18:00.782Z,27.95
2022-08-29T16:20:30.143Z,28.22
2022-08-29T16:23:00.593Z,28.01
2022-08-29T16:25:31.054Z,27.75
2022-08-29T16:28:00.935Z,27.64
2022-08-29T16:30:30.213Z,27.77
2022-08-29T16:32:59.043Z,27.41
2022-08-29T16:35:52.608Z,27.41
2022-08-29T16:38:22.286Z,27.29
2022-08-29T16:40:50.840Z,26.62
2022-08-29T16:43:19.540Z,27.46
2022-08-29T16:45:47.935Z,27.50
2022-08-29T16:48:17.712Z,27.32
2022-08-29T16:50:47.174Z,27.43
2022-08-29T16:53:15.467Z,27.50
2022-08-29T16:55:45.020Z,27.50
2022-08-29T16:58:30.837Z,27.01
2022-08-29T17:00:59.235Z,27.41
2022-08-29T17:03:27.807Z,27.41
2022-08-29T17:05:56.061Z,27.35
2022-08-29T17:08:23.310Z,27.32
2022-08-29T17:10:51.828Z,27.25
2022-08-29T17:13:18.957Z,27.08
2022-08-29T17:15:46.121Z,27.04
2022-08-29T17:18:14.569Z,26.85
2022-08-29T17:20:46.267Z,26.71
2022-08-29T17:23:15.745Z,26.66
2022-08-29T17:25:44.134Z,26.29
2022-08-29T17:28:18.263Z,26.38
2022-08-29T17:30:47.748Z,26.24
2022-08-29T17:33:16.294Z,26.23
2022-08-29T17:35:44.671Z,26.05
2022-08-29T17:38:14.976Z,26.09
2022-08-29T17:40:44.167Z,25.85
2022-08-29T17:43:14.448Z,25.95
2022-08-29T17:45:43.205Z,25.72
2022-08-29T17:48:12.147Z,25.46
2022-08-29T17:50:41.959Z,25.33
2022-08-29T17:53:10.494Z,25.30
2022-08-29T17:55:39.018Z,25.19
2022-08-29T17:58:07.462Z,25.03
2022-08-29T18:00:37.233Z,24.81
2022-08-29T18:03:07.385Z,24.77
2022-08-29T18:05:35.719Z,24.66
2022-08-29T18:08:05.110Z,24.55
2022-08-29T18:10:33.561Z,24.38
2022-08-29T18:13:01.861Z,24.16
2022-08-29T18:15:30.107Z,24.12
2022-08-29T18:18:05.532Z,23.87
2022-08-29T18:20:33.922Z,23.88
2022-08-29T18:23:02.229Z,23.85
2022-08-29T18:25:30.556Z,23.68
2022-08-29T18:27:58.805Z,23.57
2022-08-29T18:30:27.571Z,23.06
2022-08-29T18:32:56.004Z,23.24
2022-08-29T18:35:25.852Z,23.24
2022-08-29T18:37:54.088Z,23.03
2022-08-29T18:40:22.443Z,22.95
2022-08-29T18:42:52.599Z,22.81
2022-08-29T18:45:21.456Z,22.87
2022-08-29T18:47:49.710Z,22.57
2022-08-29T18:50:36.596Z,22.66
2022-08-29T18:53:10.793Z,22.27
2022-08-29T18:55:39.764Z,21.68
2022-08-29T18:58:09.585Z,22.29
2022-08-29T19:00:38.255Z,22.39
2022-08-29T19:03:07.229Z,22.38
2022-08-29T19:05:36.463Z,22.36
2022-08-29T19:08:06.406Z,22.01
2022-08-29T19:10:35.698Z,21.99
2022-08-29T19:13:04.033Z,21.91
2022-08-29T19:15:32.341Z,21.74
2022-08-29T19:18:01.086Z,21.78
2022-08-29T19:20:47.679Z,21.63
2022-08-29T19:23:18.407Z,21.77
2022-08-29T19:25:47.154Z,21.71
2022-08-29T19:28:17.089Z,21.55
2022-08-29T19:30:46.444Z,21.42
2022-08-29T19:33:17.885Z,21.27
2022-08-29T19:35:49.034Z,21.35
2022-08-29T19:38:21.000Z,21.23
2022-08-29T19:40:52.346Z,21.18
2022-08-29T19:43:20.751Z,21.11
2022-08-29T19:45:49.056Z,20.85
2022-08-29T19:48:20.384Z,21.19
2022-08-29T19:50:49.958Z,21.11
2022-08-29T19:53:26.919Z,20.99
2022-08-29T19:55:56.831Z,20.72
2022-08-29T19:58:31.404Z,20.77
2022-08-29T20:01:02.648Z,20.74
2022-08-29T20:03:32.591Z,20.67
2022-08-29T20:06:06.163Z,20.62
2022-08-29T20:08:38.031Z,19.86
2022-08-29T20:11:06.820Z,20.45
2022-08-29T20:13:36.319Z,20.50
2022-08-29T20:16:13.110Z,20.45
2022-08-29T20:18:41.945Z,20.39
2022-08-29T20:21:10.512Z,20.35
2022-08-29T20:23:49.140Z,20.34
2022-08-29T20:26:18.668Z,20.58
2022-08-29T20:28:47.414Z,20.38
2022-08-29T20:31:15.841Z,20.26
2022-08-29T20:33:44.884Z,20.12
2022-08-29T20:36:32.235Z,20.14
2022-08-29T20:39:01.937Z,20.36
2022-08-29T20:41:30.223Z,20.18
2022-08-29T20:44:06.817Z,20.18
2022-08-29T20:46:37.539Z,19.92
2022-08-29T20:49:05.808Z,19.55
2022-08-29T20:51:36.333Z,19.42
2022-08-29T20:54:06.686Z,19.62
2022-08-29T20:56:35.023Z,19.59
2022-08-29T20:59:03.949Z,19.66
2022-08-29T21:01:33.205Z,19.54
2022-08-29T21:04:21.170Z,19.77
2022-08-29T21:06:50.298Z,19.66
2022-08-29T21:09:19.893Z,19.52
2022-08-29T21:11:48.109Z,19.50
2022-08-29T21:14:16.549Z,19.45
2022-08-29T21:16:46.156Z,19.42
2022-08-29T21:19:14.424Z,19.57
2022-08-29T21:21:43.326Z,19.42
2022-08-29T21:24:11.947Z,19.39
2022-08-29T21:26:41.618Z,19.34
2022-08-29T21:29:10.192Z,18.07
2022-08-29T21:31:39.473Z,19.23
2022-08-29T21:34:10.355Z,19.24
2022-08-29T21:36:40.328Z,18.94
2022-08-29T21:39:11.577Z,18.82
2022-08-29T21:41:45.863Z,18.69
2022-08-29T21:44:15.869Z,18.65
2022-08-29T21:46:46.633Z,18.42
2022-08-29T21:49:19.518Z,18.25
2022-08-29T21:51:49.004Z,18.30
2022-08-29T21:54:19.070Z,18.36
2022-08-29T21:56:50.261Z,18.12
2022-08-29T21:59:20.782Z,18.35
2022-08-29T22:04:42.781Z,18.24
2022-08-29T22:07:23.557Z,18.34
2022-08-29T22:09:53.581Z,18.41
2022-08-29T22:12:24.976Z,18.46
2022-08-29T22:15:25.543Z,18.38
2022-08-29T22:17:53.821Z,18.27
2022-08-29T22:20:22.552Z,18.34
2022-08-29T22:22:51.304Z,18.09
2022-08-29T22:25:20.205Z,18.09
2022-08-29T22:27:49.813Z,17.89
2022-08-29T22:30:18.681Z,17.71
2022-08-29T22:32:52.801Z,17.84
2022-08-29T22:35:22.863Z,17.85
2022-08-29T22:37:54.311Z,17.90
2022-08-29T22:40:23.032Z,17.74
2022-08-29T22:42:53.119Z,17.77
2022-08-29T22:45:21.710Z,17.82
2022-08-29T22:47:49.918Z,17.93
2022-08-29T22:50:21.120Z,17.74
2022-08-29T22:52:50.451Z,17.64
2022-08-29T22:57:49.894Z,17.66
2022-08-29T23:00:23.143Z,17.59
2022-08-29T23:02:53.086Z,17.63
2022-08-29T23:05:24.161Z,17.67
2022-08-29T23:07:52.581Z,18.31
2022-08-29T23:10:22.123Z,17.43
2022-08-29T23:12:50.711Z,17.38
2022-08-29T23:15:20.641Z,17.49
2022-08-29T23:17:48.927Z,17.45
2022-08-29T23:20:19.204Z,17.47
2022-08-29T23:22:48.604Z,17.45
2022-08-29T23:25:18.189Z,17.43
2022-08-29T23:27:46.441Z,17.57
2022-08-29T23:30:15.721Z,17.34
2022-08-29T23:32:45.359Z,17.50
2022-08-29T23:35:13.841Z,17.42
2022-08-29T23:37:42.062Z,17.43
2022-08-29T23:40:11.394Z,17.41
2022-08-29T23:42:40.188Z,17.30
2022-08-29T23:45:11.268Z,17.21
2022-08-29T23:47:39.514Z,17.30
2022-08-29T23:50:10.847Z,17.09
2022-08-29T23:52:39.176Z,17.11
2022-08-29T23:55:15.156Z,16.66
2022-08-29T23:57:43.996Z,17.11
